sensor_id;sensor_type;location;lat;lon;timestamp;P1;durP1;ratioP1;P2;durP2;ratioP2
49764;SDS011;35657;51.204;-4.130;2023-05-02T00:02:20;9.38;;;2.78;;
49764;SDS011;35657;51.204;-4.130;2023-05-02T00:04:46;4.07;;;2.40;;
49764;SDS011;35657;51.204;-4.130;2023-05-02T00:07:11;4.70;;;2.20;;
49764;SDS011;35657;51.204;-4.130;2023-05-02T00:09:37;2.38;;;1.70;;
49764;SDS011;35657;51.204;-4.130;2023-05-02T00:12:03;6.15;;;1.75;;
49764;SDS011;35657;51.204;-4.130;2023-05-02T00:14:29;3.05;;;1.70;;
49764;SDS011;35657;51.204;-4.130;2023-05-02T00:16:55;1.63;;;1.20;;
49764;SDS011;35657;51.204;-4.130;2023-05-02T00:19:21;3.35;;;1.33;;
49764;SDS011;35657;51.204;-4.130;2023-05-02T00:21:46;9.65;;;1.80;;
49764;SDS011;35657;51.204;-4.130;2023-05-02T00:24:14;3.65;;;1.45;;
49764;SDS011;35657;51.204;-4.130;2023-05-02T00:26:41;4.03;;;1.15;;
49764;SDS011;35657;51.204;-4.130;2023-05-02T00:29:06;2.30;;;1.30;;
49764;SDS011;35657;51.204;-4.130;2023-05-02T00:31:32;1.95;;;0.95;;
49764;SDS011;35657;51.204;-4.130;2023-05-02T00:33:59;2.38;;;1.20;;
49764;SDS011;35657;51.204;-4.130;2023-05-02T00:36:25;3.50;;;1.10;;
49764;SDS011;35657;51.204;-4.130;2023-05-02T00:38:51;2.80;;;1.05;;
49764;SDS011;35657;51.204;-4.130;2023-05-02T00:41:17;1.88;;;1.15;;
49764;SDS011;35657;51.204;-4.130;2023-05-02T00:43:43;1.50;;;0.70;;
49764;SDS011;35657;51.204;-4.130;2023-05-02T00:46:08;2.75;;;1.00;;
49764;SDS011;35657;51.204;-4.130;2023-05-02T00:48:36;3.08;;;1.08;;
49764;SDS011;35657;51.204;-4.130;2023-05-02T00:51:03;4.45;;;1.23;;
49764;SDS011;35657;51.204;-4.130;2023-05-02T00:53:33;5.00;;;1.42;;
49764;SDS011;35657;51.204;-4.130;2023-05-02T00:56:00;1.92;;;1.30;;
49764;SDS011;35657;51.204;-4.130;2023-05-02T00:58:26;2.58;;;1.10;;
49764;SDS011;35657;51.204;-4.130;2023-05-02T01:14:20;3.45;;;1.30;;
49764;SDS011;35657;51.204;-4.130;2023-05-02T01:16:47;6.25;;;1.60;;
49764;SDS011;35657;51.204;-4.130;2023-05-02T01:19:21;4.13;;;1.20;;
49764;SDS011;35657;51.204;-4.130;2023-05-02T01:21:53;2.60;;;1.10;;
49764;SDS011;35657;51.204;-4.130;2023-05-02T01:24:25;3.55;;;1.00;;
49764;SDS011;35657;51.204;-4.130;2023-05-02T01:27:06;5.72;;;1.08;;
49764;SDS011;35657;51.204;-4.130;2023-05-02T01:29:41;2.50;;;1.10;;
49764;SDS011;35657;51.204;-4.130;2023-05-02T01:32:09;3.45;;;0.80;;
49764;SDS011;35657;51.204;-4.130;2023-05-02T01:34:37;3.35;;;1.38;;
49764;SDS011;35657;51.204;-4.130;2023-05-02T01:37:05;3.55;;;1.20;;
49764;SDS011;35657;51.204;-4.130;2023-05-02T01:39:35;2.20;;;1.08;;
49764;SDS011;35657;51.204;-4.130;2023-05-02T01:42:02;2.15;;;1.10;;
49764;SDS011;35657;51.204;-4.130;2023-05-02T01:44:29;2.38;;;1.20;;
49764;SDS011;35657;51.204;-4.130;2023-05-02T01:46:58;3.20;;;1.35;;
49764;SDS011;35657;51.204;-4.130;2023-05-02T01:49:26;1.65;;;1.00;;
49764;SDS011;35657;51.204;-4.130;2023-05-02T01:51:55;3.70;;;1.08;;
49764;SDS011;35657;51.204;-4.130;2023-05-02T01:54:29;3.50;;;1.20;;
49764;SDS011;35657;51.204;-4.130;2023-05-02T01:56:56;2.78;;;1.25;;
49764;SDS011;35657;51.204;-4.130;2023-05-02T01:59:22;1.60;;;1.25;;
49764;SDS011;35657;51.204;-4.130;2023-05-02T02:01:51;3.60;;;1.30;;
49764;SDS011;35657;51.204;-4.130;2023-05-02T02:04:18;1.83;;;1.33;;
49764;SDS011;35657;51.204;-4.130;2023-05-02T02:06:45;2.75;;;1.70;;
49764;SDS011;35657;51.204;-4.130;2023-05-02T02:09:16;4.38;;;1.20;;
49764;SDS011;35657;51.204;-4.130;2023-05-02T02:17:39;2.47;;;0.90;;
49764;SDS011;35657;51.204;-4.130;2023-05-02T02:20:09;1.70;;;0.93;;
49764;SDS011;35657;51.204;-4.130;2023-05-02T02:22:38;2.97;;;1.20;;
49764;SDS011;35657;51.204;-4.130;2023-05-02T02:25:07;2.70;;;1.23;;
49764;SDS011;35657;51.204;-4.130;2023-05-02T02:27:39;2.70;;;1.23;;
49764;SDS011;35657;51.204;-4.130;2023-05-02T02:30:05;1.98;;;1.25;;
49764;SDS011;35657;51.204;-4.130;2023-05-02T02:32:32;2.53;;;1.10;;
49764;SDS011;35657;51.204;-4.130;2023-05-02T02:34:58;2.45;;;1.45;;
49764;SDS011;35657;51.204;-4.130;2023-05-02T02:51:08;1.67;;;0.95;;
49764;SDS011;35657;51.204;-4.130;2023-05-02T02:56:11;2.00;;;1.17;;
49764;SDS011;35657;51.204;-4.130;2023-05-02T03:01:29;1.60;;;1.13;;
49764;SDS011;35657;51.204;-4.130;2023-05-02T03:03:56;3.17;;;1.15;;
49764;SDS011;35657;51.204;-4.130;2023-05-02T03:06:22;3.20;;;1.38;;
49764;SDS011;35657;51.204;-4.130;2023-05-02T03:08:49;1.95;;;1.27;;
49764;SDS011;35657;51.204;-4.130;2023-05-02T03:11:14;3.15;;;1.40;;
49764;SDS011;35657;51.204;-4.130;2023-05-02T03:13:40;2.88;;;1.10;;
49764;SDS011;35657;51.204;-4.130;2023-05-02T03:18:56;3.08;;;1.35;;
49764;SDS011;35657;51.204;-4.130;2023-05-02T03:21:22;4.18;;;1.58;;
49764;SDS011;35657;51.204;-4.130;2023-05-02T03:23:49;2.65;;;1.25;;
49764;SDS011;35657;51.204;-4.130;2023-05-02T03:26:15;1.80;;;1.00;;
49764;SDS011;35657;51.204;-4.130;2023-05-02T03:28:41;2.10;;;1.10;;
49764;SDS011;35657;51.204;-4.130;2023-05-02T03:31:10;5.53;;;1.20;;
49764;SDS011;35657;51.204;-4.130;2023-05-02T03:33:36;2.30;;;1.33;;
49764;SDS011;35657;51.204;-4.130;2023-05-02T03:36:02;1.48;;;1.30;;
49764;SDS011;35657;51.204;-4.130;2023-05-02T03:38:28;2.63;;;1.20;;
49764;SDS011;35657;51.204;-4.130;2023-05-02T03:40:57;1.55;;;1.05;;
49764;SDS011;35657;51.204;-4.130;2023-05-02T03:43:23;3.40;;;1.10;;
49764;SDS011;35657;51.204;-4.130;2023-05-02T03:45:49;3.83;;;0.93;;
49764;SDS011;35657;51.204;-4.130;2023-05-02T03:48:15;2.42;;;1.10;;
49764;SDS011;35657;51.204;-4.130;2023-05-02T03:50:41;2.10;;;1.40;;
49764;SDS011;35657;51.204;-4.130;2023-05-02T03:53:07;3.08;;;1.15;;
49764;SDS011;35657;51.204;-4.130;2023-05-02T03:55:37;1.65;;;1.20;;
49764;SDS011;35657;51.204;-4.130;2023-05-02T03:58:07;1.92;;;1.10;;
49764;SDS011;35657;51.204;-4.130;2023-05-02T04:00:34;2.70;;;1.35;;
49764;SDS011;35657;51.204;-4.130;2023-05-02T04:03:00;3.60;;;1.13;;
49764;SDS011;35657;51.204;-4.130;2023-05-02T04:05:26;1.83;;;1.13;;
49764;SDS011;35657;51.204;-4.130;2023-05-02T04:07:52;1.70;;;1.00;;
49764;SDS011;35657;51.204;-4.130;2023-05-02T04:10:19;1.77;;;1.10;;
49764;SDS011;35657;51.204;-4.130;2023-05-02T04:12:45;3.85;;;0.90;;
49764;SDS011;35657;51.204;-4.130;2023-05-02T04:15:10;1.55;;;1.10;;
49764;SDS011;35657;51.204;-4.130;2023-05-02T04:17:36;3.55;;;1.10;;
49764;SDS011;35657;51.204;-4.130;2023-05-02T04:20:03;3.50;;;1.10;;
49764;SDS011;35657;51.204;-4.130;2023-05-02T04:22:29;2.50;;;1.40;;
49764;SDS011;35657;51.204;-4.130;2023-05-02T04:24:55;1.60;;;0.98;;
49764;SDS011;35657;51.204;-4.130;2023-05-02T04:27:21;1.98;;;1.42;;
49764;SDS011;35657;51.204;-4.130;2023-05-02T04:29:47;3.30;;;1.27;;
49764;SDS011;35657;51.204;-4.130;2023-05-02T04:32:13;2.20;;;1.15;;
49764;SDS011;35657;51.204;-4.130;2023-05-02T04:34:39;3.97;;;1.27;;
49764;SDS011;35657;51.204;-4.130;2023-05-02T04:37:05;2.00;;;1.00;;
49764;SDS011;35657;51.204;-4.130;2023-05-02T04:39:31;1.58;;;1.23;;
49764;SDS011;35657;51.204;-4.130;2023-05-02T04:41:58;4.07;;;1.23;;
49764;SDS011;35657;51.204;-4.130;2023-05-02T04:44:23;2.55;;;1.50;;
49764;SDS011;35657;51.204;-4.130;2023-05-02T04:46:49;1.90;;;1.20;;
49764;SDS011;35657;51.204;-4.130;2023-05-02T04:49:15;1.77;;;1.10;;
49764;SDS011;35657;51.204;-4.130;2023-05-02T04:51:41;2.75;;;1.13;;
49764;SDS011;35657;51.204;-4.130;2023-05-02T04:54:07;1.58;;;0.90;;
49764;SDS011;35657;51.204;-4.130;2023-05-02T04:56:33;1.52;;;1.00;;
49764;SDS011;35657;51.204;-4.130;2023-05-02T04:58:58;1.65;;;1.00;;
49764;SDS011;35657;51.204;-4.130;2023-05-02T05:01:24;3.92;;;1.05;;
49764;SDS011;35657;51.204;-4.130;2023-05-02T05:03:53;3.35;;;1.33;;
49764;SDS011;35657;51.204;-4.130;2023-05-02T05:06:19;1.88;;;0.90;;
49764;SDS011;35657;51.204;-4.130;2023-05-02T05:08:45;2.22;;;1.17;;
49764;SDS011;35657;51.204;-4.130;2023-05-02T05:11:11;3.30;;;1.27;;
49764;SDS011;35657;51.204;-4.130;2023-05-02T05:13:37;1.45;;;1.05;;
49764;SDS011;35657;51.204;-4.130;2023-05-02T05:16:02;1.80;;;1.10;;
49764;SDS011;35657;51.204;-4.130;2023-05-02T05:18:28;3.53;;;1.05;;
49764;SDS011;35657;51.204;-4.130;2023-05-02T05:20:54;3.25;;;1.30;;
49764;SDS011;35657;51.204;-4.130;2023-05-02T05:23:20;1.30;;;1.10;;
49764;SDS011;35657;51.204;-4.130;2023-05-02T05:25:46;3.33;;;1.40;;
49764;SDS011;35657;51.204;-4.130;2023-05-02T05:28:12;1.92;;;1.08;;
49764;SDS011;35657;51.204;-4.130;2023-05-02T05:30:37;2.20;;;1.25;;
49764;SDS011;35657;51.204;-4.130;2023-05-02T05:33:03;1.80;;;1.50;;
49764;SDS011;35657;51.204;-4.130;2023-05-02T05:35:29;1.67;;;1.13;;
49764;SDS011;35657;51.204;-4.130;2023-05-02T05:37:56;6.60;;;1.30;;
49764;SDS011;35657;51.204;-4.130;2023-05-02T05:40:22;5.43;;;2.00;;
49764;SDS011;35657;51.204;-4.130;2023-05-02T05:42:48;2.25;;;1.40;;
49764;SDS011;35657;51.204;-4.130;2023-05-02T05:45:13;1.70;;;1.33;;
49764;SDS011;35657;51.204;-4.130;2023-05-02T05:47:41;2.40;;;1.30;;
49764;SDS011;35657;51.204;-4.130;2023-05-02T05:50:07;10.73;;;5.53;;
49764;SDS011;35657;51.204;-4.130;2023-05-02T05:52:32;6.50;;;3.35;;
49764;SDS011;35657;51.204;-4.130;2023-05-02T05:54:58;11.10;;;6.35;;
49764;SDS011;35657;51.204;-4.130;2023-05-02T05:57:24;9.13;;;5.05;;
49764;SDS011;35657;51.204;-4.130;2023-05-02T05:59:50;7.72;;;4.43;;
49764;SDS011;35657;51.204;-4.130;2023-05-02T06:02:16;6.55;;;2.47;;
49764;SDS011;35657;51.204;-4.130;2023-05-02T06:04:43;7.63;;;4.15;;
49764;SDS011;35657;51.204;-4.130;2023-05-02T06:07:10;5.35;;;1.92;;
49764;SDS011;35657;51.204;-4.130;2023-05-02T06:09:36;2.78;;;1.77;;
49764;SDS011;35657;51.204;-4.130;2023-05-02T06:12:02;3.55;;;2.22;;
49764;SDS011;35657;51.204;-4.130;2023-05-02T06:14:27;2.60;;;1.98;;
49764;SDS011;35657;51.204;-4.130;2023-05-02T06:16:53;2.80;;;1.98;;
49764;SDS011;35657;51.204;-4.130;2023-05-02T06:19:19;5.22;;;1.95;;
49764;SDS011;35657;51.204;-4.130;2023-05-02T06:21:45;3.10;;;2.28;;
49764;SDS011;35657;51.204;-4.130;2023-05-02T06:24:10;2.75;;;1.77;;
49764;SDS011;35657;51.204;-4.130;2023-05-02T06:26:36;5.43;;;1.95;;
49764;SDS011;35657;51.204;-4.130;2023-05-02T06:29:02;4.13;;;2.10;;
49764;SDS011;35657;51.204;-4.130;2023-05-02T06:31:28;3.38;;;2.20;;
49764;SDS011;35657;51.204;-4.130;2023-05-02T06:33:53;6.45;;;2.28;;
49764;SDS011;35657;51.204;-4.130;2023-05-02T06:36:19;5.10;;;2.28;;
49764;SDS011;35657;51.204;-4.130;2023-05-02T06:38:45;5.13;;;2.25;;
49764;SDS011;35657;51.204;-4.130;2023-05-02T06:41:11;6.10;;;1.90;;
49764;SDS011;35657;51.204;-4.130;2023-05-02T06:43:38;5.68;;;2.25;;
49764;SDS011;35657;51.204;-4.130;2023-05-02T06:46:04;4.22;;;1.95;;
49764;SDS011;35657;51.204;-4.130;2023-05-02T06:48:30;3.00;;;2.13;;
49764;SDS011;35657;51.204;-4.130;2023-05-02T06:50:56;4.90;;;2.25;;
49764;SDS011;35657;51.204;-4.130;2023-05-02T06:53:21;3.83;;;2.25;;
49764;SDS011;35657;51.204;-4.130;2023-05-02T06:55:47;6.03;;;2.50;;
49764;SDS011;35657;51.204;-4.130;2023-05-02T06:58:13;6.60;;;1.92;;
49764;SDS011;35657;51.204;-4.130;2023-05-02T07:00:39;5.18;;;1.85;;
49764;SDS011;35657;51.204;-4.130;2023-05-02T07:03:05;3.53;;;1.88;;
49764;SDS011;35657;51.204;-4.130;2023-05-02T07:05:30;3.58;;;1.60;;
49764;SDS011;35657;51.204;-4.130;2023-05-02T07:07:56;1.90;;;1.40;;
49764;SDS011;35657;51.204;-4.130;2023-05-02T07:10:22;3.63;;;1.83;;
49764;SDS011;35657;51.204;-4.130;2023-05-02T07:12:47;4.63;;;1.85;;
49764;SDS011;35657;51.204;-4.130;2023-05-02T07:15:13;5.15;;;1.88;;
49764;SDS011;35657;51.204;-4.130;2023-05-02T07:17:40;2.92;;;1.77;;
49764;SDS011;35657;51.204;-4.130;2023-05-02T07:20:06;3.55;;;2.15;;
49764;SDS011;35657;51.204;-4.130;2023-05-02T07:22:33;2.50;;;1.80;;
49764;SDS011;35657;51.204;-4.130;2023-05-02T07:25:00;3.33;;;2.00;;
49764;SDS011;35657;51.204;-4.130;2023-05-02T07:27:26;5.13;;;1.77;;
49764;SDS011;35657;51.204;-4.130;2023-05-02T07:29:52;4.78;;;2.28;;
49764;SDS011;35657;51.204;-4.130;2023-05-02T07:32:18;4.05;;;2.25;;
49764;SDS011;35657;51.204;-4.130;2023-05-02T07:34:45;3.50;;;2.25;;
49764;SDS011;35657;51.204;-4.130;2023-05-02T07:37:12;3.53;;;2.40;;
49764;SDS011;35657;51.204;-4.130;2023-05-02T07:39:37;6.47;;;2.40;;
49764;SDS011;35657;51.204;-4.130;2023-05-02T07:42:03;4.32;;;1.92;;
49764;SDS011;35657;51.204;-4.130;2023-05-02T07:44:30;4.57;;;2.58;;
49764;SDS011;35657;51.204;-4.130;2023-05-02T07:46:57;3.00;;;2.38;;
49764;SDS011;35657;51.204;-4.130;2023-05-02T07:49:23;3.55;;;2.40;;
49764;SDS011;35657;51.204;-4.130;2023-05-02T07:51:48;7.22;;;2.40;;
49764;SDS011;35657;51.204;-4.130;2023-05-02T07:54:17;4.88;;;2.78;;
49764;SDS011;35657;51.204;-4.130;2023-05-02T07:56:44;4.13;;;2.88;;
49764;SDS011;35657;51.204;-4.130;2023-05-02T07:59:11;3.90;;;2.17;;
49764;SDS011;35657;51.204;-4.130;2023-05-02T08:01:38;4.57;;;2.30;;
49764;SDS011;35657;51.204;-4.130;2023-05-02T08:04:04;5.05;;;2.85;;
49764;SDS011;35657;51.204;-4.130;2023-05-02T08:06:29;4.15;;;2.80;;
49764;SDS011;35657;51.204;-4.130;2023-05-02T08:08:57;4.70;;;2.72;;
49764;SDS011;35657;51.204;-4.130;2023-05-02T08:11:23;5.72;;;2.80;;
49764;SDS011;35657;51.204;-4.130;2023-05-02T08:13:51;5.45;;;3.38;;
49764;SDS011;35657;51.204;-4.130;2023-05-02T08:16:18;3.35;;;2.55;;
49764;SDS011;35657;51.204;-4.130;2023-05-02T08:18:44;3.58;;;2.70;;
49764;SDS011;35657;51.204;-4.130;2023-05-02T08:21:10;3.63;;;2.60;;
49764;SDS011;35657;51.204;-4.130;2023-05-02T08:23:36;6.32;;;2.78;;
49764;SDS011;35657;51.204;-4.130;2023-05-02T08:26:02;4.07;;;2.28;;
49764;SDS011;35657;51.204;-4.130;2023-05-02T08:28:28;5.38;;;2.88;;
49764;SDS011;35657;51.204;-4.130;2023-05-02T08:30:54;3.80;;;1.92;;
49764;SDS011;35657;51.204;-4.130;2023-05-02T08:33:20;2.30;;;1.77;;
49764;SDS011;35657;51.204;-4.130;2023-05-02T08:35:46;2.42;;;1.60;;
49764;SDS011;35657;51.204;-4.130;2023-05-02T08:38:12;1.60;;;1.30;;
49764;SDS011;35657;51.204;-4.130;2023-05-02T08:40:38;2.35;;;1.58;;
49764;SDS011;35657;51.204;-4.130;2023-05-02T08:43:04;3.03;;;1.40;;
49764;SDS011;35657;51.204;-4.130;2023-05-02T08:45:34;2.00;;;1.30;;
49764;SDS011;35657;51.204;-4.130;2023-05-02T08:48:07;1.42;;;1.10;;
49764;SDS011;35657;51.204;-4.130;2023-05-02T08:50:38;2.97;;;1.52;;
49764;SDS011;35657;51.204;-4.130;2023-05-02T08:53:05;1.85;;;1.30;;
49764;SDS011;35657;51.204;-4.130;2023-05-02T08:55:33;1.83;;;1.42;;
49764;SDS011;35657;51.204;-4.130;2023-05-02T08:58:00;2.63;;;1.98;;
49764;SDS011;35657;51.204;-4.130;2023-05-02T09:00:28;2.42;;;1.63;;
49764;SDS011;35657;51.204;-4.130;2023-05-02T09:05:41;4.20;;;1.58;;
49764;SDS011;35657;51.204;-4.130;2023-05-02T09:08:07;2.40;;;1.50;;
49764;SDS011;35657;51.204;-4.130;2023-05-02T09:10:34;3.30;;;1.70;;
49764;SDS011;35657;51.204;-4.130;2023-05-02T09:15:58;5.57;;;1.80;;
49764;SDS011;35657;51.204;-4.130;2023-05-02T09:18:24;3.17;;;2.30;;
49764;SDS011;35657;51.204;-4.130;2023-05-02T09:20:59;4.75;;;2.97;;
49764;SDS011;35657;51.204;-4.130;2023-05-02T09:23:32;3.22;;;2.50;;
49764;SDS011;35657;51.204;-4.130;2023-05-02T09:26:02;2.75;;;1.88;;
49764;SDS011;35657;51.204;-4.130;2023-05-02T09:28:43;4.38;;;2.53;;
49764;SDS011;35657;51.204;-4.130;2023-05-02T09:31:10;4.47;;;3.00;;
49764;SDS011;35657;51.204;-4.130;2023-05-02T09:33:37;2.80;;;2.08;;
49764;SDS011;35657;51.204;-4.130;2023-05-02T09:36:04;3.45;;;2.60;;
49764;SDS011;35657;51.204;-4.130;2023-05-02T09:38:31;2.90;;;2.40;;
49764;SDS011;35657;51.204;-4.130;2023-05-02T09:40:57;4.32;;;2.47;;
49764;SDS011;35657;51.204;-4.130;2023-05-02T09:43:24;3.80;;;2.90;;
49764;SDS011;35657;51.204;-4.130;2023-05-02T09:48:27;3.28;;;2.60;;
49764;SDS011;35657;51.204;-4.130;2023-05-02T09:50:54;4.32;;;2.60;;
49764;SDS011;35657;51.204;-4.130;2023-05-02T09:53:21;3.92;;;2.10;;
49764;SDS011;35657;51.204;-4.130;2023-05-02T09:55:51;3.28;;;2.17;;
49764;SDS011;35657;51.204;-4.130;2023-05-02T09:58:27;2.97;;;2.38;;
49764;SDS011;35657;51.204;-4.130;2023-05-02T10:00:55;4.32;;;2.40;;
49764;SDS011;35657;51.204;-4.130;2023-05-02T10:03:22;5.50;;;2.03;;
49764;SDS011;35657;51.204;-4.130;2023-05-02T10:05:49;3.97;;;2.53;;
49764;SDS011;35657;51.204;-4.130;2023-05-02T10:08:15;3.40;;;2.20;;
49764;SDS011;35657;51.204;-4.130;2023-05-02T10:10:50;3.33;;;2.55;;
49764;SDS011;35657;51.204;-4.130;2023-05-02T10:13:21;4.03;;;2.10;;
49764;SDS011;35657;51.204;-4.130;2023-05-02T10:15:49;3.35;;;2.15;;
49764;SDS011;35657;51.204;-4.130;2023-05-02T10:18:25;3.28;;;2.03;;
49764;SDS011;35657;51.204;-4.130;2023-05-02T10:20:55;3.88;;;2.10;;
49764;SDS011;35657;51.204;-4.130;2023-05-02T10:23:26;2.45;;;2.10;;
49764;SDS011;35657;51.204;-4.130;2023-05-02T10:25:53;2.90;;;1.77;;
49764;SDS011;35657;51.204;-4.130;2023-05-02T10:28:21;2.53;;;2.10;;
49764;SDS011;35657;51.204;-4.130;2023-05-02T10:30:48;3.05;;;2.08;;
49764;SDS011;35657;51.204;-4.130;2023-05-02T10:33:15;5.03;;;2.83;;
49764;SDS011;35657;51.204;-4.130;2023-05-02T10:35:43;3.72;;;2.20;;
49764;SDS011;35657;51.204;-4.130;2023-05-02T10:38:12;3.38;;;2.90;;
49764;SDS011;35657;51.204;-4.130;2023-05-02T10:40:51;3.63;;;2.60;;
49764;SDS011;35657;51.204;-4.130;2023-05-02T10:43:30;4.82;;;2.47;;
49764;SDS011;35657;51.204;-4.130;2023-05-02T10:45:57;4.90;;;2.50;;
49764;SDS011;35657;51.204;-4.130;2023-05-02T10:48:24;3.63;;;2.30;;
49764;SDS011;35657;51.204;-4.130;2023-05-02T10:50:54;4.07;;;2.35;;
49764;SDS011;35657;51.204;-4.130;2023-05-02T10:53:22;2.50;;;2.30;;
49764;SDS011;35657;51.204;-4.130;2023-05-02T10:58:45;2.20;;;1.80;;
49764;SDS011;35657;51.204;-4.130;2023-05-02T11:03:55;5.47;;;2.78;;
49764;SDS011;35657;51.204;-4.130;2023-05-02T11:06:25;5.35;;;2.30;;
49764;SDS011;35657;51.204;-4.130;2023-05-02T11:11:43;3.28;;;1.77;;
49764;SDS011;35657;51.204;-4.130;2023-05-02T11:14:10;3.67;;;2.00;;
49764;SDS011;35657;51.204;-4.130;2023-05-02T11:19:22;3.13;;;2.53;;
49764;SDS011;35657;51.204;-4.130;2023-05-02T11:21:47;1.70;;;1.50;;
49764;SDS011;35657;51.204;-4.130;2023-05-02T11:30:03;2.28;;;1.80;;
49764;SDS011;35657;51.204;-4.130;2023-05-02T11:35:15;3.75;;;3.20;;
49764;SDS011;35657;51.204;-4.130;2023-05-02T11:37:52;2.30;;;1.65;;
49764;SDS011;35657;51.204;-4.130;2023-05-02T11:40:20;3.70;;;1.75;;
49764;SDS011;35657;51.204;-4.130;2023-05-02T11:42:46;2.22;;;1.67;;
49764;SDS011;35657;51.204;-4.130;2023-05-02T11:45:12;3.42;;;1.77;;
49764;SDS011;35657;51.204;-4.130;2023-05-02T11:47:38;2.30;;;1.90;;
49764;SDS011;35657;51.204;-4.130;2023-05-02T11:50:05;1.83;;;1.65;;
49764;SDS011;35657;51.204;-4.130;2023-05-02T11:52:38;1.63;;;1.52;;
49764;SDS011;35657;51.204;-4.130;2023-05-02T11:55:05;2.20;;;1.60;;
49764;SDS011;35657;51.204;-4.130;2023-05-02T11:57:33;5.82;;;1.80;;
49764;SDS011;35657;51.204;-4.130;2023-05-02T12:00:00;4.80;;;1.83;;
49764;SDS011;35657;51.204;-4.130;2023-05-02T12:02:42;2.67;;;1.33;;
49764;SDS011;35657;51.204;-4.130;2023-05-02T12:05:09;3.55;;;1.63;;
49764;SDS011;35657;51.204;-4.130;2023-05-02T12:07:40;5.45;;;1.63;;
49764;SDS011;35657;51.204;-4.130;2023-05-02T12:10:09;5.95;;;1.50;;
49764;SDS011;35657;51.204;-4.130;2023-05-02T12:12:35;2.60;;;1.80;;
49764;SDS011;35657;51.204;-4.130;2023-05-02T12:17:32;2.42;;;1.60;;
49764;SDS011;35657;51.204;-4.130;2023-05-02T12:20:04;1.15;;;0.95;;
49764;SDS011;35657;51.204;-4.130;2023-05-02T12:22:31;4.13;;;1.88;;
49764;SDS011;35657;51.204;-4.130;2023-05-02T12:24:57;2.38;;;1.50;;
49764;SDS011;35657;51.204;-4.130;2023-05-02T12:27:23;3.25;;;1.67;;
49764;SDS011;35657;51.204;-4.130;2023-05-02T12:29:49;5.60;;;1.40;;
49764;SDS011;35657;51.204;-4.130;2023-05-02T12:32:26;2.63;;;1.30;;
49764;SDS011;35657;51.204;-4.130;2023-05-02T12:35:01;2.33;;;1.27;;
49764;SDS011;35657;51.204;-4.130;2023-05-02T12:37:27;3.05;;;1.50;;
49764;SDS011;35657;51.204;-4.130;2023-05-02T12:39:54;2.42;;;1.83;;
49764;SDS011;35657;51.204;-4.130;2023-05-02T12:42:21;3.97;;;1.95;;
49764;SDS011;35657;51.204;-4.130;2023-05-02T12:44:49;2.00;;;1.70;;
49764;SDS011;35657;51.204;-4.130;2023-05-02T12:47:20;2.13;;;1.50;;
49764;SDS011;35657;51.204;-4.130;2023-05-02T12:49:56;2.40;;;1.80;;
49764;SDS011;35657;51.204;-4.130;2023-05-02T12:52:45;7.40;;;1.70;;
49764;SDS011;35657;51.204;-4.130;2023-05-02T12:55:19;3.75;;;1.00;;
49764;SDS011;35657;51.204;-4.130;2023-05-02T12:57:48;2.00;;;1.80;;
49764;SDS011;35657;51.204;-4.130;2023-05-02T13:00:17;1.60;;;0.90;;
49764;SDS011;35657;51.204;-4.130;2023-05-02T13:02:43;1.95;;;1.15;;
49764;SDS011;35657;51.204;-4.130;2023-05-02T13:05:18;3.17;;;1.50;;
49764;SDS011;35657;51.204;-4.130;2023-05-02T13:07:44;3.33;;;1.33;;
49764;SDS011;35657;51.204;-4.130;2023-05-02T13:10:10;2.20;;;1.63;;
49764;SDS011;35657;51.204;-4.130;2023-05-02T13:12:37;2.17;;;1.67;;
49764;SDS011;35657;51.204;-4.130;2023-05-02T13:15:03;2.15;;;1.48;;
49764;SDS011;35657;51.204;-4.130;2023-05-02T13:17:30;1.88;;;1.38;;
49764;SDS011;35657;51.204;-4.130;2023-05-02T13:19:56;1.13;;;0.82;;
49764;SDS011;35657;51.204;-4.130;2023-05-02T13:22:22;4.03;;;2.03;;
49764;SDS011;35657;51.204;-4.130;2023-05-02T13:24:48;2.83;;;1.35;;
49764;SDS011;35657;51.204;-4.130;2023-05-02T13:27:13;2.95;;;1.67;;
49764;SDS011;35657;51.204;-4.130;2023-05-02T13:29:42;1.70;;;1.10;;
49764;SDS011;35657;51.204;-4.130;2023-05-02T13:32:11;2.60;;;1.50;;
49764;SDS011;35657;51.204;-4.130;2023-05-02T13:34:37;2.65;;;1.80;;
49764;SDS011;35657;51.204;-4.130;2023-05-02T13:37:02;2.42;;;1.50;;
49764;SDS011;35657;51.204;-4.130;2023-05-02T13:39:28;2.17;;;1.40;;
49764;SDS011;35657;51.204;-4.130;2023-05-02T13:41:54;3.70;;;2.10;;
49764;SDS011;35657;51.204;-4.130;2023-05-02T13:44:19;1.92;;;1.02;;
49764;SDS011;35657;51.204;-4.130;2023-05-02T13:46:45;4.82;;;1.67;;
49764;SDS011;35657;51.204;-4.130;2023-05-02T13:49:12;1.45;;;0.88;;
49764;SDS011;35657;51.204;-4.130;2023-05-02T13:51:38;2.47;;;1.30;;
49764;SDS011;35657;51.204;-4.130;2023-05-02T13:54:03;3.20;;;1.80;;
49764;SDS011;35657;51.204;-4.130;2023-05-02T13:56:29;2.58;;;1.55;;
49764;SDS011;35657;51.204;-4.130;2023-05-02T13:58:55;2.75;;;1.33;;
49764;SDS011;35657;51.204;-4.130;2023-05-02T14:01:21;2.85;;;1.48;;
49764;SDS011;35657;51.204;-4.130;2023-05-02T14:03:46;2.58;;;1.27;;
49764;SDS011;35657;51.204;-4.130;2023-05-02T14:06:12;1.95;;;1.40;;
49764;SDS011;35657;51.204;-4.130;2023-05-02T14:08:38;1.52;;;1.00;;
49764;SDS011;35657;51.204;-4.130;2023-05-02T14:11:04;1.77;;;1.50;;
49764;SDS011;35657;51.204;-4.130;2023-05-02T14:13:30;3.65;;;1.60;;
49764;SDS011;35657;51.204;-4.130;2023-05-02T14:15:55;1.75;;;1.25;;
49764;SDS011;35657;51.204;-4.130;2023-05-02T14:18:22;3.75;;;1.65;;
49764;SDS011;35657;51.204;-4.130;2023-05-02T14:20:48;5.13;;;1.70;;
49764;SDS011;35657;51.204;-4.130;2023-05-02T14:23:15;1.25;;;1.00;;
49764;SDS011;35657;51.204;-4.130;2023-05-02T14:25:41;3.42;;;1.70;;
49764;SDS011;35657;51.204;-4.130;2023-05-02T14:28:06;2.47;;;1.50;;
49764;SDS011;35657;51.204;-4.130;2023-05-02T14:30:32;3.40;;;1.17;;
49764;SDS011;35657;51.204;-4.130;2023-05-02T14:32:58;2.20;;;1.45;;
49764;SDS011;35657;51.204;-4.130;2023-05-02T14:35:23;2.17;;;1.83;;
49764;SDS011;35657;51.204;-4.130;2023-05-02T14:37:49;5.68;;;1.52;;
49764;SDS011;35657;51.204;-4.130;2023-05-02T14:40:15;2.85;;;1.90;;
49764;SDS011;35657;51.204;-4.130;2023-05-02T14:42:41;2.92;;;1.23;;
49764;SDS011;35657;51.204;-4.130;2023-05-02T14:45:07;3.22;;;1.17;;
49764;SDS011;35657;51.204;-4.130;2023-05-02T14:47:34;4.18;;;1.50;;
49764;SDS011;35657;51.204;-4.130;2023-05-02T14:50:01;3.20;;;1.73;;
49764;SDS011;35657;51.204;-4.130;2023-05-02T14:52:28;2.85;;;1.25;;
49764;SDS011;35657;51.204;-4.130;2023-05-02T14:54:57;4.40;;;2.53;;
49764;SDS011;35657;51.204;-4.130;2023-05-02T14:57:24;2.58;;;1.00;;
49764;SDS011;35657;51.204;-4.130;2023-05-02T14:59:50;2.10;;;1.30;;
49764;SDS011;35657;51.204;-4.130;2023-05-02T15:02:15;1.60;;;1.33;;
49764;SDS011;35657;51.204;-4.130;2023-05-02T15:04:41;3.50;;;2.03;;
49764;SDS011;35657;51.204;-4.130;2023-05-02T15:07:07;2.38;;;1.45;;
49764;SDS011;35657;51.204;-4.130;2023-05-02T15:09:32;2.47;;;1.70;;
49764;SDS011;35657;51.204;-4.130;2023-05-02T15:11:58;1.98;;;1.00;;
49764;SDS011;35657;51.204;-4.130;2023-05-02T15:14:24;2.15;;;1.35;;
49764;SDS011;35657;51.204;-4.130;2023-05-02T15:16:49;1.67;;;1.50;;
49764;SDS011;35657;51.204;-4.130;2023-05-02T15:19:15;2.20;;;1.52;;
49764;SDS011;35657;51.204;-4.130;2023-05-02T15:21:41;3.78;;;1.80;;
49764;SDS011;35657;51.204;-4.130;2023-05-02T15:24:06;2.15;;;1.40;;
49764;SDS011;35657;51.204;-4.130;2023-05-02T15:26:32;3.40;;;1.80;;
49764;SDS011;35657;51.204;-4.130;2023-05-02T15:28:58;2.60;;;1.52;;
49764;SDS011;35657;51.204;-4.130;2023-05-02T15:31:23;3.67;;;1.50;;
49764;SDS011;35657;51.204;-4.130;2023-05-02T15:33:49;6.45;;;1.38;;
49764;SDS011;35657;51.204;-4.130;2023-05-02T15:36:15;1.75;;;1.33;;
49764;SDS011;35657;51.204;-4.130;2023-05-02T15:38:41;2.30;;;1.48;;
49764;SDS011;35657;51.204;-4.130;2023-05-02T15:41:07;2.53;;;1.45;;
49764;SDS011;35657;51.204;-4.130;2023-05-02T15:43:35;2.30;;;1.65;;
49764;SDS011;35657;51.204;-4.130;2023-05-02T15:46:01;3.17;;;1.42;;